createdAt,value
2023-02-06T00:02:21.061Z,102164.63
2023-02-06T00:05:23.469Z,102170.88
2023-02-06T00:08:26.813Z,102180.75
2023-02-06T00:11:29.303Z,102187.97
2023-02-06T00:14:32.678Z,102182.66
2023-02-06T00:17:36.667Z,102196.69
2023-02-06T00:20:39.178Z,102206.59
2023-02-06T00:23:41.768Z,102223.06
2023-02-06T00:26:44.135Z,102210.22
2023-02-06T00:29:46.475Z,102217.75
2023-02-06T00:32:49.246Z,102222.50
2023-02-06T00:35:51.544Z,102221.69
2023-02-06T00:38:53.922Z,102232.66
2023-02-06T00:41:56.280Z,102225.41
2023-02-06T00:44:58.608Z,102224.22
2023-02-06T00:48:01.244Z,102233.44
2023-02-06T00:51:03.663Z,102228.28
2023-02-06T00:54:07.252Z,102229.25
2023-02-06T00:57:09.553Z,102219.53
2023-02-06T01:00:12.442Z,102209.19
2023-02-06T01:03:14.790Z,102207.59
2023-02-06T01:06:17.976Z,102213.66
2023-02-06T01:09:20.236Z,102210.41
2023-02-06T01:12:22.755Z,102197.19
2023-02-06T01:15:25.501Z,102212.97
2023-02-06T01:18:27.868Z,102225.88
2023-02-06T01:21:30.143Z,102222.47
2023-02-06T01:24:33.591Z,102217.03
2023-02-06T01:27:37.666Z,102221.94
2023-02-06T01:30:40.115Z,102227.13
2023-02-06T01:33:42.809Z,102240.06
2023-02-06T01:36:45.637Z,102239.53
2023-02-06T01:39:47.956Z,102221.75
2023-02-06T01:42:50.328Z,102223.06
2023-02-06T01:45:53.182Z,102225.50
2023-02-06T01:48:56.094Z,102237.25
2023-02-06T01:52:05.805Z,102229.06
2023-02-06T01:55:08.208Z,102235.38
2023-02-06T01:58:11.932Z,102236.38
2023-02-06T02:01:14.658Z,102204.81
2023-02-06T02:04:19.990Z,102202.72
2023-02-06T02:07:27.983Z,102197.38
2023-02-06T02:10:31.051Z,102201.88
2023-02-06T02:13:34.386Z,102200.19
2023-02-06T02:16:36.888Z,102206.50
2023-02-06T02:20:18.445Z,102205.88
2023-02-06T02:23:34.966Z,102202.94
2023-02-06T02:26:55.534Z,102200.44
2023-02-06T02:30:03.695Z,102207.53
2023-02-06T02:33:30.848Z,102216.66
2023-02-06T02:36:39.415Z,102211.41
2023-02-06T02:39:46.739Z,102205.81
2023-02-06T02:43:16.471Z,102213.78
2023-02-06T02:46:19.159Z,102209.91
2023-02-06T02:49:27.225Z,102207.28
2023-02-06T02:52:30.166Z,102206.41
2023-02-06T02:55:32.643Z,102203.03
2023-02-06T02:58:37.844Z,102214.31
2023-02-06T03:01:48.530Z,102219.63
2023-02-06T03:04:54.841Z,102204.50
2023-02-06T03:08:22.723Z,102207.16
2023-02-06T03:11:25.587Z,102217.41
2023-02-06T03:14:44.666Z,102219.25
2023-02-06T03:17:51.925Z,102213.03
2023-02-06T03:20:54.416Z,102205.94
2023-02-06T03:23:59.893Z,102218.31
2023-02-06T03:27:05.340Z,102225.34
2023-02-06T03:30:10.439Z,102229.03
2023-02-06T03:33:14.749Z,102219.63
2023-02-06T03:36:18.504Z,102220.09
2023-02-06T03:39:21.371Z,102231.94
2023-02-06T03:42:25.094Z,102213.47
2023-02-06T03:45:33.492Z,102212.16
2023-02-06T03:48:44.873Z,102229.50
2023-02-06T03:52:13.576Z,102231.47
2023-02-06T03:55:22.333Z,102228.53
2023-02-06T03:58:24.851Z,102220.63
2023-02-06T04:01:27.691Z,102231.25
2023-02-06T04:04:35.255Z,102228.38
2023-02-06T04:07:37.643Z,102220.94
2023-02-06T04:10:39.955Z,102225.31
2023-02-06T04:13:42.237Z,102208.91
2023-02-06T04:16:44.606Z,102212.91
2023-02-06T04:19:46.935Z,102220.91
2023-02-06T04:22:49.296Z,102224.47
2023-02-06T04:25:51.671Z,102216.09
2023-02-06T04:28:54.022Z,102226.81
2023-02-06T04:32:02.078Z,102211.78
2023-02-06T04:35:04.787Z,102231.84
2023-02-06T04:38:07.064Z,102227.81
2023-02-06T04:41:10.273Z,102234.38
2023-02-06T04:44:12.682Z,102230.63
2023-02-06T04:47:15.066Z,102220.88
2023-02-06T04:50:18.022Z,102224.66
2023-02-06T04:53:20.392Z,102237.16
2023-02-06T04:56:22.678Z,102231.00
2023-02-06T04:59:24.998Z,102225.34
2023-02-06T05:02:27.456Z,102232.03
2023-02-06T05:05:29.879Z,102240.53
2023-02-06T05:08:32.256Z,102232.41
2023-02-06T05:11:34.725Z,102249.56
2023-02-06T05:14:37.336Z,102236.03
2023-02-06T05:17:39.816Z,102248.84
2023-02-06T05:20:42.956Z,102255.56
2023-02-06T05:23:45.265Z,102259.16
2023-02-06T05:26:47.577Z,102244.28
2023-02-06T05:29:49.972Z,102260.13
2023-02-06T05:32:52.429Z,102249.94
2023-02-06T05:35:54.986Z,102239.59
2023-02-06T05:38:57.382Z,102238.13
2023-02-06T05:41:59.704Z,102235.69
2023-02-06T05:45:02.276Z,102261.63
2023-02-06T05:48:04.872Z,102248.72
2023-02-06T05:51:07.218Z,102250.53
2023-02-06T05:54:09.538Z,102244.63
2023-02-06T05:57:11.874Z,102256.66
2023-02-06T06:00:14.846Z,102260.19
2023-02-06T06:03:19.261Z,102240.44
2023-02-06T06:06:21.594Z,102253.88
2023-02-06T06:09:24.030Z,102253.13
2023-02-06T06:12:26.437Z,102261.13
2023-02-06T06:15:29.199Z,102258.72
2023-02-06T06:18:32.914Z,102243.03
2023-02-06T06:21:35.791Z,102240.31
2023-02-06T06:24:49.865Z,102248.59
2023-02-06T06:27:52.494Z,102234.22
2023-02-06T06:31:02.841Z,102238.63
2023-02-06T06:34:05.424Z,102235.06
2023-02-06T06:37:07.738Z,102236.44
2023-02-06T06:43:42.649Z,102220.81
2023-02-06T06:46:45.020Z,102246.69
2023-02-06T06:49:47.543Z,102237.97
2023-02-06T06:52:49.819Z,102240.19
2023-02-06T06:55:52.238Z,102232.25
2023-02-06T06:58:55.504Z,102235.69
2023-02-06T07:01:57.877Z,102246.06
2023-02-06T07:05:00.587Z,102247.75
2023-02-06T07:08:03.003Z,102241.34
2023-02-06T07:11:05.479Z,102245.00
2023-02-06T07:14:07.841Z,102212.94
2023-02-06T07:17:10.212Z,102246.16
2023-02-06T07:20:12.604Z,102243.34
2023-02-06T07:23:14.963Z,102253.41
2023-02-06T07:26:17.374Z,102246.38
2023-02-06T07:29:19.800Z,102260.13
2023-02-06T07:32:22.323Z,102254.97
2023-02-06T07:35:24.801Z,102269.03
2023-02-06T07:38:27.244Z,102258.41
2023-02-06T07:41:29.729Z,102241.31
2023-02-06T07:44:32.122Z,102256.53
2023-02-06T07:47:34.349Z,102252.03
2023-02-06T07:50:37.040Z,102260.00
2023-02-06T07:53:39.306Z,102259.53
2023-02-06T07:56:41.952Z,102252.50
2023-02-06T07:59:44.291Z,102243.47
2023-02-06T08:02:46.595Z,102249.78
2023-02-06T08:05:48.919Z,102252.50
2023-02-06T08:08:51.923Z,102242.09
2023-02-06T08:11:55.536Z,102234.81
2023-02-06T08:14:58.170Z,102243.63
2023-02-06T08:18:00.538Z,102235.72
2023-02-06T08:21:07.903Z,102248.34
2023-02-06T08:24:12.266Z,102247.09
2023-02-06T08:27:15.355Z,102249.81
2023-02-06T08:30:17.846Z,102232.31
2023-02-06T08:33:22.046Z,102237.34
2023-02-06T08:36:24.922Z,102237.69
2023-02-06T08:39:28.247Z,102238.50
2023-02-06T08:42:32.708Z,102237.66
2023-02-06T08:45:36.677Z,102234.44
2023-02-06T08:48:39.166Z,102229.38
2023-02-06T08:51:41.719Z,102229.19
2023-02-06T08:54:44.013Z,102229.63
2023-02-06T08:57:46.287Z,102227.38
2023-02-06T09:00:48.556Z,102214.47
2023-02-06T09:03:54.779Z,102222.31
2023-02-06T09:06:57.680Z,102226.78
2023-02-06T09:10:00.673Z,102229.09
2023-02-06T09:13:03.512Z,102228.22
2023-02-06T09:16:06.776Z,102228.06
2023-02-06T09:19:10.632Z,102229.94
2023-02-06T09:22:13.010Z,102235.50
2023-02-06T09:25:15.346Z,102238.44
2023-02-06T09:28:18.042Z,102236.53
2023-02-06T09:31:20.977Z,102244.91
2023-02-06T09:34:24.441Z,102227.56
2023-02-06T09:37:26.727Z,102238.88
2023-02-06T09:40:29.748Z,102246.56
2023-02-06T09:43:33.225Z,102234.75
2023-02-06T09:46:47.906Z,102218.25
2023-02-06T09:50:15.678Z,102212.91
2023-02-06T09:53:41.224Z,102220.72
2023-02-06T09:56:55.305Z,102207.91
2023-02-06T10:00:04.341Z,102193.91
2023-02-06T10:03:33.875Z,102195.13
2023-02-06T10:06:54.533Z,102219.63
2023-02-06T10:10:03.465Z,102209.59
2023-02-06T10:13:30.337Z,102181.78
2023-02-06T10:16:48.399Z,102204.31
2023-02-06T10:20:07.095Z,102203.06
2023-02-06T10:23:21.626Z,102204.06
2023-02-06T10:26:27.423Z,102187.91
2023-02-06T10:29:34.773Z,102188.63
2023-02-06T10:33:20.300Z,102197.50
2023-02-06T10:36:54.506Z,102177.31
2023-02-06T10:40:23.333Z,102194.03
2023-02-06T10:43:34.190Z,102135.59
2023-02-06T10:46:48.949Z,102166.38
2023-02-06T10:53:51.191Z,102109.75
2023-02-06T10:56:56.255Z,102171.97
2023-02-06T11:00:02.955Z,102138.31
2023-02-06T11:03:08.602Z,102136.28
2023-02-06T11:06:21.370Z,102152.66
2023-02-06T11:09:26.294Z,102088.66
2023-02-06T11:12:50.711Z,102112.09
2023-02-06T11:17:05.245Z,102146.25
2023-02-06T11:20:25.756Z,102139.06
2023-02-06T11:23:32.735Z,102114.31
2023-02-06T11:26:54.845Z,102090.97
2023-02-06T11:31:12.704Z,102134.41
2023-02-06T11:34:32.204Z,102122.69
2023-02-06T11:37:46.359Z,102118.72
2023-02-06T11:41:22.195Z,102098.66
2023-02-06T11:44:30.534Z,102115.69
2023-02-06T11:48:05.661Z,102105.53
2023-02-06T11:51:48.729Z,102106.06
2023-02-06T12:05:09.009Z,102100.94
2023-02-06T12:08:14.294Z,102084.53
2023-02-06T12:11:23.699Z,102041.81
2023-02-06T12:14:40.182Z,102084.09
2023-02-06T12:18:03.181Z,102072.25
2023-02-06T12:21:24.393Z,102074.22
2023-02-06T12:24:45.436Z,102062.25
2023-02-06T12:28:17.006Z,102061.91
2023-02-06T12:31:54.179Z,102045.16
2023-02-06T12:35:28.115Z,102037.81
2023-02-06T12:38:56.242Z,102075.78
2023-02-06T12:42:39.837Z,102042.09
2023-02-06T12:46:01.867Z,102061.22
2023-02-06T12:49:24.751Z,102058.34
2023-02-06T12:52:44.458Z,102062.50
2023-02-06T12:56:05.114Z,102057.22
2023-02-06T12:59:58.944Z,102039.28
2023-02-06T13:03:24.605Z,102054.78
2023-02-06T13:06:57.945Z,102052.31
2023-02-06T13:10:02.577Z,102048.41
2023-02-06T13:13:07.196Z,102064.16
2023-02-06T13:16:10.360Z,102062.78
2023-02-06T13:19:52.979Z,102058.88
2023-02-06T13:23:14.713Z,102055.56
2023-02-06T13:26:18.100Z,102030.94
2023-02-06T13:29:41.680Z,102041.41
2023-02-06T13:32:47.129Z,102028.63
2023-02-06T13:36:10.160Z,102042.25
2023-02-06T13:39:27.485Z,102055.03
2023-02-06T13:42:59.113Z,102063.94
2023-02-06T13:46:11.258Z,102058.91
2023-02-06T13:49:45.774Z,102059.06
2023-02-06T13:52:48.201Z,102065.47
2023-02-06T13:56:08.494Z,102061.16
2023-02-06T13:59:21.848Z,102082.28
2023-02-06T14:02:47.338Z,102084.22
2023-02-06T14:06:22.678Z,102065.00
2023-02-06T14:10:19.434Z,102086.97
2023-02-06T14:13:30.885Z,102095.25
2023-02-06T14:16:58.002Z,102101.00
2023-02-06T14:20:20.910Z,102049.16
2023-02-06T14:23:59.164Z,102102.25
2023-02-06T14:27:24.983Z,102094.56
2023-02-06T14:30:45.212Z,102098.47
2023-02-06T14:33:54.267Z,102107.03
2023-02-06T14:37:07.074Z,102107.31
2023-02-06T14:40:21.005Z,102072.91
2023-02-06T14:43:27.860Z,102087.03
2023-02-06T14:46:31.453Z,102066.81
2023-02-06T14:49:35.965Z,102082.28
2023-02-06T14:52:38.868Z,102086.81
2023-02-06T14:55:53.498Z,102087.22
2023-02-06T14:58:56.325Z,102077.34
2023-02-06T15:01:59.904Z,102087.97
2023-02-06T15:05:03.729Z,102110.31
2023-02-06T15:08:07.096Z,102118.22
2023-02-06T15:11:20.668Z,102116.75
2023-02-06T15:14:38.129Z,102112.03
2023-02-06T15:17:42.210Z,102102.78
2023-02-06T15:20:47.132Z,102120.84
2023-02-06T15:24:55.682Z,102135.22
2023-02-06T15:32:39.277Z,102130.28
2023-02-06T15:36:55.477Z,102064.91
2023-02-06T15:40:06.588Z,102120.47
2023-02-06T15:43:20.095Z,102131.97
2023-02-06T15:46:22.953Z,102146.06
2023-02-06T15:50:00.400Z,102134.13
2023-02-06T15:53:17.498Z,102118.88
2023-02-06T15:56:31.996Z,102150.63
2023-02-06T15:59:41.736Z,102136.84
2023-02-06T16:02:44.302Z,102139.72
2023-02-06T16:05:46.819Z,102143.31
2023-02-06T16:09:07.704Z,102159.16
2023-02-06T16:12:10.298Z,102159.75
2023-02-06T16:15:32.662Z,102174.56
2023-02-06T16:18:37.620Z,102159.13
2023-02-06T16:21:43.568Z,102180.50
2023-02-06T16:24:45.965Z,102184.84
2023-02-06T16:27:50.866Z,102183.19
2023-02-06T16:31:01.957Z,102185.94
2023-02-06T16:34:30.872Z,102162.84
2023-02-06T16:37:33.201Z,102183.75
2023-02-06T16:40:35.827Z,102176.69
2023-02-06T16:43:38.344Z,102138.38
2023-02-06T16:46:42.091Z,102190.25
2023-02-06T16:49:48.081Z,102178.75
2023-02-06T16:52:57.375Z,102201.09
2023-02-06T16:56:00.415Z,102200.22
2023-02-06T16:59:03.315Z,102203.84
2023-02-06T17:02:11.959Z,102168.84
2023-02-06T17:05:15.627Z,102194.03
2023-02-06T17:08:22.671Z,102175.78
2023-02-06T17:11:25.206Z,102179.13
2023-02-06T17:14:27.546Z,102189.41
2023-02-06T17:17:30.072Z,102190.81
2023-02-06T17:20:35.906Z,102179.19
2023-02-06T17:23:38.619Z,102199.28
2023-02-06T17:26:40.976Z,102195.53
2023-02-06T17:29:45.022Z,102194.81
2023-02-06T17:32:49.343Z,102162.16
2023-02-06T17:35:51.744Z,102173.72
2023-02-06T17:38:54.098Z,102196.88
2023-02-06T17:41:56.481Z,102171.94
2023-02-06T17:44:59.106Z,102206.66
2023-02-06T17:48:01.414Z,102206.69
2023-02-06T17:51:05.486Z,102205.03
2023-02-06T17:54:08.736Z,102188.50
2023-02-06T17:57:13.364Z,102203.41
2023-02-06T18:00:17.671Z,102218.38
2023-02-06T18:03:20.884Z,102204.91
2023-02-06T18:06:23.680Z,102196.53
2023-02-06T18:09:26.126Z,102209.31
2023-02-06T18:12:28.522Z,102220.63
2023-02-06T18:15:31.997Z,102234.19
2023-02-06T18:18:34.275Z,102207.91
2023-02-06T18:21:36.709Z,102200.56
2023-02-06T18:24:39.564Z,102240.06
2023-02-06T18:27:42.845Z,102215.75
2023-02-06T18:30:45.255Z,102230.72
2023-02-06T18:33:47.679Z,102249.63
2023-02-06T18:36:50.417Z,102242.91
2023-02-06T18:39:55.103Z,102239.50
2023-02-06T18:42:57.628Z,102237.88
2023-02-06T18:46:07.092Z,102195.75
2023-02-06T18:49:11.039Z,102240.91
2023-02-06T18:52:13.978Z,102235.75
2023-02-06T18:55:16.434Z,102245.19
2023-02-06T18:58:18.771Z,102239.44
2023-02-06T19:01:23.533Z,102230.88
2023-02-06T19:04:26.773Z,102247.53
2023-02-06T19:07:29.184Z,102263.53
2023-02-06T19:10:31.904Z,102265.44
2023-02-06T19:13:34.566Z,102250.28
2023-02-06T19:16:40.963Z,102261.56
2023-02-06T19:19:43.293Z,102263.16
2023-02-06T19:22:46.382Z,102274.38
2023-02-06T19:25:48.692Z,102269.97
2023-02-06T19:28:52.263Z,102280.47
2023-02-06T19:31:56.160Z,102267.47
2023-02-06T19:34:58.616Z,102284.34
2023-02-06T19:38:02.580Z,102263.06
2023-02-06T19:41:09.464Z,102267.91
2023-02-06T19:44:14.044Z,102289.47
2023-02-06T19:47:16.446Z,102303.94
2023-02-06T19:50:19.194Z,102267.25
2023-02-06T19:53:21.835Z,102271.44
2023-02-06T19:56:26.863Z,102287.06
2023-02-06T19:59:29.774Z,102273.41
2023-02-06T20:02:32.119Z,102303.81
2023-02-06T20:05:35.914Z,102304.53
2023-02-06T20:08:39.846Z,102282.72
2023-02-06T20:11:42.898Z,102314.19
2023-02-06T20:14:45.283Z,102308.69
2023-02-06T20:17:47.692Z,102302.00
2023-02-06T20:20:50.041Z,102283.09
2023-02-06T20:23:53.064Z,102300.72
2023-02-06T20:26:58.528Z,102301.66
2023-02-06T20:30:00.957Z,102305.16
2023-02-06T20:33:03.367Z,102316.34
2023-02-06T20:36:10.768Z,102330.63
2023-02-06T20:39:14.419Z,102330.53
2023-02-06T20:42:16.932Z,102295.72
2023-02-06T20:45:19.330Z,102315.94
2023-02-06T20:48:21.713Z,102340.28
2023-02-06T20:51:24.558Z,102347.81
2023-02-06T20:54:27.208Z,102347.25
2023-02-06T20:57:30.470Z,102341.16
2023-02-06T21:00:34.529Z,102338.63
2023-02-06T21:03:38.969Z,102347.38
2023-02-06T21:06:43.223Z,102341.13
2023-02-06T21:09:45.600Z,102358.91
2023-02-06T21:12:47.918Z,102359.69
2023-02-06T21:15:54.774Z,102367.88
2023-02-06T21:18:58.046Z,102380.09
2023-02-06T21:22:00.865Z,102362.13
2023-02-06T21:25:03.441Z,102372.50
2023-02-06T21:28:06.045Z,102344.13
2023-02-06T21:31:20.638Z,102368.44
2023-02-06T21:34:25.585Z,102375.63
2023-02-06T21:37:28.719Z,102332.66
2023-02-06T21:40:31.034Z,102328.22
2023-02-06T21:43:33.847Z,102357.72
2023-02-06T21:46:36.322Z,102370.94
2023-02-06T21:49:38.721Z,102348.09
2023-02-06T21:52:41.091Z,102367.22
2023-02-06T21:55:44.763Z,102379.34
2023-02-06T21:58:47.645Z,102369.38
2023-02-06T22:01:49.977Z,102369.25
2023-02-06T22:04:52.321Z,102357.53
2023-02-06T22:07:54.694Z,102369.22
2023-02-06T22:10:57.036Z,102364.47
2023-02-06T22:14:02.139Z,102388.72
2023-02-06T22:17:04.456Z,102384.44
2023-02-06T22:20:07.097Z,102369.31
2023-02-06T22:23:09.400Z,102387.81
2023-02-06T22:26:14.208Z,102394.38
2023-02-06T22:29:17.861Z,102373.59
2023-02-06T22:32:20.123Z,102391.16
2023-02-06T22:35:22.507Z,102368.97
2023-02-06T22:38:24.840Z,102396.59
2023-02-06T22:41:28.084Z,102375.31
2023-02-06T22:44:30.461Z,102401.91
2023-02-06T22:47:33.270Z,102391.72
2023-02-06T22:50:36.530Z,102399.38
2023-02-06T22:53:39.577Z,102385.72
2023-02-06T22:56:43.576Z,102393.56
2023-02-06T22:59:45.894Z,102400.22
2023-02-06T23:02:48.430Z,102391.16
2023-02-06T23:05:50.729Z,102395.53
2023-02-06T23:08:53.749Z,102400.88
2023-02-06T23:11:58.530Z,102397.78
2023-02-06T23:15:00.875Z,102394.72
2023-02-06T23:18:03.240Z,102386.13
2023-02-06T23:21:08.633Z,102409.09
2023-02-06T23:24:12.090Z,102387.69
2023-02-06T23:27:14.681Z,102402.91
2023-02-06T23:30:17.002Z,102407.41
2023-02-06T23:33:19.623Z,102411.41
2023-02-06T23:36:23.857Z,102415.44
2023-02-06T23:39:26.267Z,102396.28
2023-02-06T23:42:29.337Z,102416.88
2023-02-06T23:45:32.044Z,102406.66
2023-02-06T23:48:35.084Z,102403.81
2023-02-06T23:51:38.186Z,102402.69
2023-02-06T23:54:40.570Z,102407.47
2023-02-06T23:57:42.911Z,102410.38
